logo
Search for airport 
image banner adimage banner adimage banner ad
image banner ad

EPMR - Miroslawice

Located in , Poland

ICAO - EPMR, IATA -

Data provided by Airmate  

General information

Coordinates: N50°57'33" E16°46'13"
Elevation is 504 feet MSL.
Magnetic variation is 5.0000° East
Rated:
View ratings:
[VIEW]
View others Airports in Lower Silesia

Operational data

Special qualification required
Current time UTC:
Current local time:
Weather at : EPWR - Wroclaw/Strachowice ( 18 km )
METAR: EPWR 130200Z VRB02KT CAVOK 17/17 Q1008
TAF: TAF EPWR 122330Z 1300/1324 27010KT 9999 SCT020 PROB40 TEMPO 1300/1304 0400 FG BKN002 TEMPO 1306/1312 27015G25KT BECMG 1318/1321 02006KT TEMPO 1318/1324 1200 +TSRA BKN030CB
View NOTAMs / SUP AIP / TFR affecting this airport [VIEW]
Communications frequencies: [VIEW]

Runways:

RWY identifierQFULength (ft)Width (ft)SurfaceLDA (ft)
09R93°1690164GRASS1690
27L273°1690164GRASS1690
17175°2774164GRASS2772
35355°2774164GRASS2411
09L93°1870164GRASS1870
27R273°1870164GRASS1870

Airport contact information

Address: Poland

Satellite view of EPMR